Time;durP1;ratioP1;P1;durP2;ratioP2;P2;SDS_P1;SDS_P2;PMS_P1;PMS_P2;Temp;Humidity;BMP_temperature;BMP_pressure;BME280_temperature;BME280_humidity;BME280_pressure;Samples;Min_cycle;Max_cycle;Signal;HPM_P1;HPM_P2
2024/01/28 00:02:03;;;;;;;19.23;11.35;;;0.90;99.90;;;;;;5064842;28;20208;-75
2024/01/28 00:04:48;;;;;;;17.63;10.52;;;0.80;99.90;;;;;;5072875;28;20231;-74
2024/01/28 00:07:34;;;;;;;16.48;11.18;;;0.80;99.90;;;;;;5073086;28;20204;-74
2024/01/28 00:10:20;;;;;;;13.88;8.18;;;0.80;99.90;;;;;;5067307;28;20326;-75
2024/01/28 00:13:06;;;;;;;15.88;9.40;;;0.80;99.90;;;;;;5063651;28;20719;-74
2024/01/28 00:15:53;;;;;;;19.10;9.30;;;0.70;99.90;;;;;;5070779;28;20208;-75
2024/01/28 00:18:40;;;;;;;15.50;7.75;;;0.70;99.90;;;;;;5066114;28;20200;-75
2024/01/28 00:21:25;;;;;;;18.70;9.70;;;0.70;99.90;;;;;;5066319;28;20203;-75
2024/01/28 00:24:11;;;;;;;15.65;7.72;;;0.70;99.90;;;;;;5067911;28;20730;-75
2024/01/28 00:26:57;;;;;;;14.85;7.25;;;0.60;99.90;;;;;;5075592;28;20204;-74
2024/01/28 00:29:42;;;;;;;13.75;6.95;;;0.70;99.90;;;;;;5068864;28;20203;-75
2024/01/28 00:32:28;;;;;;;13.15;8.05;;;0.80;99.90;;;;;;5065633;28;20290;-75
2024/01/28 00:35:15;;;;;;;14.32;7.85;;;0.70;99.90;;;;;;5072304;28;20211;-75
2024/01/28 00:38:01;;;;;;;10.30;6.95;;;0.80;99.90;;;;;;5078317;28;20440;-75
2024/01/28 00:40:48;;;;;;;12.10;7.45;;;0.70;99.90;;;;;;5073088;28;20219;-74
2024/01/28 00:43:33;;;;;;;8.88;6.78;;;0.80;99.90;;;;;;5066254;28;20239;-75
2024/01/28 00:46:20;;;;;;;17.30;7.68;;;0.60;99.90;;;;;;5069137;28;20683;-75
2024/01/28 00:49:05;;;;;;;13.27;7.07;;;0.50;99.90;;;;;;5066158;28;20207;-75
2024/01/28 00:51:52;;;;;;;18.85;7.53;;;0.50;99.90;;;;;;5073342;28;20223;-75
2024/01/28 00:54:38;;;;;;;15.43;7.30;;;0.50;99.90;;;;;;5063689;28;20231;-75
2024/01/28 00:57:23;;;;;;;18.92;10.25;;;0.40;99.90;;;;;;5068230;28;20205;-75
2024/01/28 01:00:10;;;;;;;16.40;8.50;;;0.40;99.90;;;;;;5065296;28;20204;-75
2024/01/28 01:02:56;;;;;;;20.17;8.20;;;0.40;99.90;;;;;;5061219;28;20840;-75
2024/01/28 01:05:41;;;;;;;10.77;8.27;;;0.30;99.90;;;;;;5072842;28;20207;-74
2024/01/28 01:08:28;;;;;;;18.27;9.27;;;0.30;99.90;;;;;;5068753;28;20212;-75
2024/01/28 01:11:14;;;;;;;15.05;8.70;;;0.20;99.90;;;;;;5070453;28;20200;-74
2024/01/28 01:13:59;;;;;;;15.55;9.80;;;0.40;99.90;;;;;;5074902;28;20580;-75
2024/01/28 01:16:45;;;;;;;19.48;10.13;;;0.30;99.90;;;;;;5069893;28;20204;-74
2024/01/28 01:19:30;;;;;;;13.77;8.82;;;0.30;99.90;;;;;;5069929;28;20246;-75
2024/01/28 01:22:16;;;;;;;14.52;8.18;;;0.30;99.90;;;;;;5068068;28;20276;-74
2024/01/28 01:25:04;;;;;;;12.60;8.52;;;0.40;99.90;;;;;;5066985;28;20216;-74
2024/01/28 01:27:52;;;;;;;24.02;8.55;;;0.30;99.90;;;;;;5073530;28;20681;-74
2024/01/28 01:30:39;;;;;;;13.45;8.93;;;0.40;99.90;;;;;;5068063;28;20224;-75
2024/01/28 01:33:24;;;;;;;11.20;7.20;;;0.40;99.90;;;;;;5083793;22;20295;-69
2024/01/28 01:36:10;;;;;;;14.55;7.70;;;0.40;99.90;;;;;;5022121;28;20213;-69
2024/01/28 01:38:56;;;;;;;12.05;7.07;;;0.40;99.90;;;;;;5023438;28;20348;-68
2024/01/28 01:41:43;;;;;;;16.80;6.95;;;0.40;99.90;;;;;;5023495;28;20256;-69
2024/01/28 01:44:29;;;;;;;10.15;6.97;;;0.40;99.90;;;;;;5030363;28;20228;-69
2024/01/28 01:47:15;;;;;;;13.88;8.35;;;0.30;99.90;;;;;;5044063;28;20697;-69
2024/01/28 01:50:01;;;;;;;18.30;8.45;;;0.30;99.90;;;;;;5038966;28;20225;-69
2024/01/28 01:52:47;;;;;;;9.65;6.63;;;0.30;99.90;;;;;;5043556;28;20219;-69
2024/01/28 01:55:35;;;;;;;10.63;7.43;;;0.30;99.90;;;;;;5040213;28;20275;-69
2024/01/28 01:58:22;;;;;;;11.80;6.65;;;0.30;99.90;;;;;;5038040;28;20208;-69
2024/01/28 02:01:08;;;;;;;14.13;7.25;;;0.30;99.90;;;;;;5037648;28;20294;-69
2024/01/28 02:03:54;;;;;;;11.05;7.43;;;0.20;99.90;;;;;;5038835;28;20359;-69
2024/01/28 02:06:39;;;;;;;11.57;6.60;;;0.10;99.90;;;;;;5042645;28;20216;-69
2024/01/28 02:09:25;;;;;;;18.55;6.28;;;0.00;99.90;;;;;;5032240;28;20221;-69
2024/01/28 02:12:10;;;;;;;7.70;5.93;;;0.10;99.90;;;;;;5040279;28;20205;-69
2024/01/28 02:15:05;;;;;;;11.07;6.90;;;0.00;99.90;;;;;;5038768;28;20267;-69
2024/01/28 02:17:52;;;;;;;11.00;7.00;;;0.10;99.90;;;;;;5039400;28;20208;-69
2024/01/28 02:20:38;;;;;;;14.82;7.20;;;0.00;99.90;;;;;;5041110;28;20210;-69
2024/01/28 02:23:25;;;;;;;13.40;7.70;;;0.00;99.90;;;;;;5038531;28;20233;-69
2024/01/28 02:26:10;;;;;;;11.10;7.25;;;0.10;99.90;;;;;;5038854;28;20275;-69
2024/01/28 02:28:56;;;;;;;11.00;6.63;;;0.10;99.90;;;;;;5034513;28;20611;-69
2024/01/28 02:31:42;;;;;;;11.95;6.55;;;0.10;99.90;;;;;;5040964;28;20209;-69
2024/01/28 02:34:27;;;;;;;9.05;5.95;;;0.20;99.90;;;;;;5037348;28;20249;-68
2024/01/28 02:37:13;;;;;;;12.52;8.32;;;0.10;99.90;;;;;;5039270;28;20208;-69
2024/01/28 02:40:00;;;;;;;11.18;7.13;;;-0.10;99.90;;;;;;5044767;28;20201;-69
2024/01/28 02:42:46;;;;;;;13.15;6.53;;;-0.10;99.90;;;;;;5039260;28;20776;-69
2024/01/28 02:45:32;;;;;;;8.48;6.72;;;0.00;99.90;;;;;;5040125;28;20224;-69
2024/01/28 02:48:18;;;;;;;9.20;6.70;;;0.00;99.90;;;;;;5042283;28;20308;-69
2024/01/28 02:51:04;;;;;;;11.52;7.35;;;0.10;99.90;;;;;;5044543;28;20205;-69
2024/01/28 02:53:49;;;;;;;12.30;7.15;;;0.00;99.90;;;;;;5042586;28;20361;-69
2024/01/28 02:56:37;;;;;;;9.75;6.70;;;0.00;99.90;;;;;;5039391;28;20210;-69
2024/01/28 02:59:22;;;;;;;14.23;6.80;;;0.00;99.90;;;;;;5040141;28;20251;-69
2024/01/28 03:02:08;;;;;;;13.75;7.40;;;0.00;99.90;;;;;;5041505;28;20575;-69
2024/01/28 03:04:53;;;;;;;10.93;6.70;;;0.00;99.90;;;;;;5039621;28;20233;-69
2024/01/28 03:07:40;;;;;;;9.48;6.50;;;0.00;99.90;;;;;;5040107;28;20216;-69
2024/01/28 03:10:26;;;;;;;9.77;6.82;;;0.00;99.90;;;;;;5036834;28;20208;-69
2024/01/28 03:13:13;;;;;;;10.23;5.93;;;0.00;99.90;;;;;;5041972;28;20425;-68
2024/01/28 03:15:59;;;;;;;10.73;6.43;;;0.00;99.90;;;;;;5043092;28;20255;-69
2024/01/28 03:18:44;;;;;;;8.20;5.07;;;-0.10;99.90;;;;;;5041774;28;20581;-69
2024/01/28 03:21:31;;;;;;;10.73;6.30;;;-0.20;99.90;;;;;;5041870;28;20683;-68
2024/01/28 03:24:16;;;;;;;8.65;6.07;;;-0.20;99.90;;;;;;5038680;28;20239;-69
2024/01/28 03:27:02;;;;;;;8.35;6.65;;;-0.10;99.90;;;;;;5040020;28;20213;-69
2024/01/28 03:29:49;;;;;;;11.70;6.65;;;-0.10;99.90;;;;;;5039744;28;20212;-69
2024/01/28 03:32:34;;;;;;;11.00;7.10;;;-0.10;99.90;;;;;;5035326;28;20271;-68
2024/01/28 03:35:20;;;;;;;8.85;6.40;;;-0.20;99.90;;;;;;5038016;28;20359;-69
2024/01/28 03:38:06;;;;;;;9.30;6.05;;;-0.30;99.90;;;;;;5036985;28;20686;-69
2024/01/28 03:40:52;;;;;;;20.23;6.90;;;-0.30;99.90;;;;;;5031435;28;20304;-69
2024/01/28 03:43:38;;;;;;;9.43;7.00;;;-0.30;99.90;;;;;;5040148;28;20235;-68
2024/01/28 03:46:25;;;;;;;10.43;6.60;;;-0.40;99.90;;;;;;5038292;28;20280;-69
2024/01/28 03:49:10;;;;;;;11.23;5.38;;;-0.40;99.90;;;;;;5039744;28;20563;-69
2024/01/28 03:51:56;;;;;;;9.57;6.07;;;-0.40;99.90;;;;;;5041225;28;20205;-69
2024/01/28 03:54:42;;;;;;;7.95;5.93;;;-0.50;99.90;;;;;;5041065;28;20531;-69
2024/01/28 03:57:28;;;;;;;10.30;6.35;;;-0.40;99.90;;;;;;5041670;28;20293;-68
2024/01/28 04:00:15;;;;;;;11.50;6.15;;;-0.50;99.90;;;;;;5039083;28;20213;-69
2024/01/28 04:03:02;;;;;;;11.52;6.07;;;-0.50;99.90;;;;;;5045443;28;20248;-69
2024/01/28 04:05:48;;;;;;;10.32;5.72;;;-0.40;99.90;;;;;;5040160;28;20555;-70
2024/01/28 04:08:33;;;;;;;15.73;6.47;;;-0.50;99.90;;;;;;5041843;28;20325;-69
2024/01/28 04:11:19;;;;;;;9.93;6.50;;;-0.60;99.90;;;;;;5046019;28;20205;-69
2024/01/28 04:14:05;;;;;;;9.02;5.90;;;-0.60;99.90;;;;;;5040827;28;20227;-69
2024/01/28 04:16:50;;;;;;;19.38;5.95;;;-0.70;99.90;;;;;;5042091;28;20216;-69
2024/01/28 04:19:37;;;;;;;8.52;5.03;;;-0.70;99.90;;;;;;5043584;28;20213;-70
2024/01/28 04:22:23;;;;;;;14.02;5.55;;;-0.60;99.90;;;;;;5041624;28;21019;-69
2024/01/28 04:25:09;;;;;;;9.35;5.40;;;-0.60;99.90;;;;;;5044132;28;20374;-69
2024/01/28 04:27:55;;;;;;;9.23;4.95;;;-0.60;99.90;;;;;;5043909;28;20275;-69
2024/01/28 04:30:40;;;;;;;10.20;5.10;;;-0.50;99.90;;;;;;5041515;28;20209;-69
2024/01/28 04:33:26;;;;;;;9.70;5.15;;;-0.40;99.90;;;;;;5040955;28;20201;-69
2024/01/28 04:36:13;;;;;;;8.20;5.00;;;-0.30;99.90;;;;;;5038503;28;20612;-69
2024/01/28 04:38:59;;;;;;;12.73;4.85;;;-0.40;99.90;;;;;;5044055;28;20205;-69
2024/01/28 04:41:44;;;;;;;5.47;4.60;;;-0.30;99.90;;;;;;5044811;28;20213;-69
2024/01/28 04:44:30;;;;;;;8.25;4.80;;;-0.40;99.90;;;;;;5041452;28;20593;-69
2024/01/28 04:47:16;;;;;;;8.50;4.60;;;-0.50;99.90;;;;;;5038346;28;20205;-69
2024/01/28 04:50:02;;;;;;;11.50;4.95;;;-0.60;99.90;;;;;;5043221;28;20209;-69
2024/01/28 04:52:49;;;;;;;9.50;5.80;;;-0.60;99.90;;;;;;5034823;28;20223;-69
2024/01/28 04:55:35;;;;;;;8.05;4.97;;;-0.60;99.90;;;;;;5036794;28;20296;-69
2024/01/28 04:58:20;;;;;;;8.75;5.30;;;-0.70;99.90;;;;;;5041247;28;20206;-69
2024/01/28 05:01:06;;;;;;;7.45;4.97;;;-0.80;99.90;;;;;;5037526;28;20209;-69
2024/01/28 05:03:52;;;;;;;14.30;5.70;;;-0.80;99.90;;;;;;5038745;28;20229;-69
2024/01/28 05:06:38;;;;;;;9.45;5.18;;;-0.80;99.90;;;;;;5033871;28;20587;-69
2024/01/28 05:09:26;;;;;;;17.45;6.55;;;-0.70;99.90;;;;;;5041768;28;20201;-69
2024/01/28 05:12:11;;;;;;;10.30;5.22;;;-0.70;99.90;;;;;;5046539;28;20309;-69
2024/01/28 05:14:57;;;;;;;9.20;5.50;;;-0.70;99.90;;;;;;5041803;28;20249;-69
2024/01/28 05:17:44;;;;;;;9.88;5.38;;;-0.70;99.90;;;;;;5040916;28;20279;-69
2024/01/28 05:20:30;;;;;;;9.60;5.05;;;-0.80;99.90;;;;;;5036467;28;20209;-69
2024/01/28 05:23:15;;;;;;;6.57;4.68;;;-0.80;99.90;;;;;;5035535;28;20287;-69
2024/01/28 05:26:03;;;;;;;7.85;4.80;;;-0.70;99.90;;;;;;5040649;28;20995;-69
2024/01/28 05:28:49;;;;;;;7.10;4.75;;;-0.50;99.90;;;;;;5037728;28;20569;-69
2024/01/28 05:31:34;;;;;;;8.80;5.13;;;-0.40;99.90;;;;;;5039398;28;20201;-69
2024/01/28 05:34:20;;;;;;;7.43;5.65;;;-0.50;99.90;;;;;;5043293;28;20236;-69
2024/01/28 05:37:06;;;;;;;7.80;5.00;;;-0.50;99.90;;;;;;5039209;28;20579;-69
2024/01/28 05:39:51;;;;;;;6.47;4.38;;;-0.60;99.90;;;;;;5038692;28;20220;-69
2024/01/28 05:42:38;;;;;;;7.60;4.70;;;-0.70;99.90;;;;;;5041203;28;20228;-69
2024/01/28 05:45:24;;;;;;;10.55;4.72;;;-0.70;99.90;;;;;;5037265;28;21484;-69
2024/01/28 05:48:09;;;;;;;5.60;4.93;;;-0.80;99.90;;;;;;5037572;28;20324;-69
2024/01/28 05:50:55;;;;;;;7.82;5.10;;;-0.90;99.90;;;;;;5038024;28;20734;-69
2024/01/28 05:53:40;;;;;;;9.85;6.00;;;-0.80;99.90;;;;;;5042157;28;20348;-69
2024/01/28 05:56:26;;;;;;;13.10;6.00;;;-0.80;99.90;;;;;;5036630;28;20247;-69
2024/01/28 05:59:13;;;;;;;10.40;5.70;;;-0.80;99.90;;;;;;5041874;28;20204;-69
2024/01/28 06:01:59;;;;;;;7.43;4.68;;;-0.80;99.90;;;;;;5035865;28;20730;-69
2024/01/28 06:04:44;;;;;;;13.00;5.28;;;-0.80;99.90;;;;;;5038664;28;20228;-69
2024/01/28 06:07:30;;;;;;;6.05;4.47;;;-0.90;99.90;;;;;;5043146;28;20200;-69
2024/01/28 06:10:16;;;;;;;10.38;4.55;;;-0.90;99.90;;;;;;5041128;28;20686;-69
2024/01/28 06:13:01;;;;;;;7.53;5.07;;;-0.90;99.90;;;;;;5035314;28;20209;-69
2024/01/28 06:15:48;;;;;;;10.65;5.95;;;-0.90;99.90;;;;;;5041178;28;20259;-69
2024/01/28 06:18:35;;;;;;;15.80;6.53;;;-1.00;99.90;;;;;;5040550;28;20283;-69
2024/01/28 06:21:20;;;;;;;8.98;5.55;;;-0.90;99.90;;;;;;5040420;28;20587;-69
2024/01/28 06:24:06;;;;;;;12.85;5.65;;;-0.90;99.90;;;;;;5039332;28;20217;-69
2024/01/28 06:26:52;;;;;;;12.93;5.30;;;-1.00;99.90;;;;;;5036286;28;20336;-69
2024/01/28 06:29:38;;;;;;;10.55;5.85;;;-1.00;99.90;;;;;;5036601;28;20201;-69
2024/01/28 06:32:25;;;;;;;6.30;4.93;;;-1.00;99.90;;;;;;5040326;28;20203;-69
2024/01/28 06:35:10;;;;;;;8.00;4.50;;;-1.00;99.90;;;;;;5040190;28;20240;-70
2024/01/28 06:37:56;;;;;;;8.15;5.38;;;-1.00;99.90;;;;;;5040798;28;20279;-69
2024/01/28 06:40:42;;;;;;;9.10;6.53;;;-1.00;99.90;;;;;;5044490;28;20200;-69
2024/01/28 06:43:28;;;;;;;12.15;7.55;;;-0.90;99.90;;;;;;5041232;28;20204;-69
2024/01/28 06:46:16;;;;;;;17.30;7.65;;;-0.90;99.90;;;;;;5037486;28;20216;-70
2024/01/28 06:49:03;;;;;;;9.93;7.15;;;-0.80;99.90;;;;;;5037994;28;20691;-69
2024/01/28 06:51:49;;;;;;;14.07;8.75;;;-0.80;99.90;;;;;;5038810;28;20213;-69
2024/01/28 06:54:35;;;;;;;11.55;7.90;;;-0.80;99.90;;;;;;5038913;28;21055;-69
2024/01/28 06:57:20;;;;;;;10.73;7.20;;;-0.80;99.90;;;;;;5033431;28;20816;-69
2024/01/28 07:00:10;;;;;;;14.10;8.77;;;-0.90;99.90;;;;;;5040416;28;20200;-69
2024/01/28 07:02:56;;;;;;;10.95;7.13;;;-0.90;99.90;;;;;;5037894;28;20209;-69
2024/01/28 07:05:43;;;;;;;7.57;5.40;;;-1.00;99.90;;;;;;5042146;28;20225;-69
2024/01/28 07:08:29;;;;;;;7.43;4.80;;;-1.10;99.90;;;;;;5034522;28;20209;-69
2024/01/28 07:11:14;;;;;;;12.95;5.18;;;-1.10;99.90;;;;;;5037741;28;20702;-69
2024/01/28 07:14:00;;;;;;;8.65;5.25;;;-1.10;99.90;;;;;;5034140;28;20229;-69
2024/01/28 07:16:45;;;;;;;8.88;5.53;;;-1.00;99.90;;;;;;5042416;28;20212;-69
2024/01/28 07:19:31;;;;;;;9.02;4.40;;;-1.10;99.90;;;;;;5035885;28;20196;-69
2024/01/28 07:22:18;;;;;;;10.43;6.60;;;-1.00;99.90;;;;;;5043741;28;20208;-70
2024/01/28 07:25:04;;;;;;;11.40;5.75;;;-1.00;99.90;;;;;;5041309;28;20586;-69
2024/01/28 07:27:49;;;;;;;6.30;4.93;;;-0.90;99.90;;;;;;5046012;28;20209;-69
2024/01/28 07:30:35;;;;;;;8.90;5.18;;;-0.90;99.90;;;;;;5041912;28;20205;-69
2024/01/28 07:33:21;;;;;;;6.90;5.80;;;-0.80;99.90;;;;;;5041077;28;20667;-69
2024/01/28 07:36:07;;;;;;;9.50;7.13;;;-0.90;99.90;;;;;;5039680;28;20205;-68
2024/01/28 07:38:54;;;;;;;5.38;4.88;;;-0.80;99.90;;;;;;5042324;28;20323;-69
2024/01/28 07:41:39;;;;;;;6.82;5.68;;;-0.70;99.90;;;;;;5045130;28;20450;-68
2024/01/28 07:44:25;;;;;;;9.00;5.40;;;-0.70;99.90;;;;;;5040163;28;20232;-69
2024/01/28 07:47:11;;;;;;;8.20;5.60;;;-0.70;99.90;;;;;;5042112;28;20215;-69
2024/01/28 07:49:56;;;;;;;9.40;5.72;;;-0.70;99.90;;;;;;5042022;28;20738;-69
2024/01/28 07:52:43;;;;;;;10.90;5.45;;;-0.80;99.90;;;;;;5043370;28;20698;-69
2024/01/28 07:55:30;;;;;;;10.55;6.22;;;-0.70;99.90;;;;;;5043505;28;20228;-68
2024/01/28 07:58:16;;;;;;;11.27;7.00;;;-0.70;99.90;;;;;;5043667;28;20205;-68
2024/01/28 08:01:03;;;;;;;13.60;7.85;;;-0.80;99.90;;;;;;5043112;28;20737;-69
2024/01/28 08:03:49;;;;;;;12.05;7.15;;;-0.90;99.90;;;;;;5040641;28;20524;-70
2024/01/28 08:06:34;;;;;;;9.75;6.55;;;-0.80;99.90;;;;;;5041497;28;20283;-69
2024/01/28 08:09:20;;;;;;;8.05;6.15;;;-0.60;99.90;;;;;;5040233;28;20247;-69
2024/01/28 08:12:08;;;;;;;8.43;6.28;;;-0.50;99.90;;;;;;5041733;28;20299;-70
2024/01/28 08:14:53;;;;;;;9.40;6.15;;;-0.70;99.90;;;;;;5042647;28;20217;-69
2024/01/28 08:17:39;;;;;;;9.38;5.28;;;-0.60;99.90;;;;;;5040150;28;20223;-70
2024/01/28 08:20:25;;;;;;;7.18;5.07;;;-0.50;99.90;;;;;;5042186;28;20315;-69
2024/01/28 08:23:10;;;;;;;8.48;5.28;;;-0.50;99.90;;;;;;5038178;28;20450;-71
2024/01/28 08:25:56;;;;;;;11.10;5.15;;;-0.50;99.90;;;;;;5040793;28;20223;-69
2024/01/28 08:28:43;;;;;;;10.13;5.45;;;-0.50;99.90;;;;;;5043027;28;20334;-68
2024/01/28 08:31:30;;;;;;;14.23;5.32;;;-0.50;99.90;;;;;;5041631;28;20211;-70
2024/01/28 08:34:16;;;;;;;12.13;8.52;;;-0.40;99.90;;;;;;5037138;28;20240;-68
2024/01/28 08:37:03;;;;;;;13.45;7.88;;;-0.40;99.90;;;;;;5040819;28;20211;-69
2024/01/28 08:39:49;;;;;;;10.25;6.50;;;-0.30;99.90;;;;;;5042357;28;20213;-70
2024/01/28 08:42:35;;;;;;;15.18;8.70;;;-0.30;99.90;;;;;;5043518;28;20258;-69
2024/01/28 08:45:22;;;;;;;11.60;8.13;;;-0.20;99.90;;;;;;5040897;28;20230;-69
2024/01/28 08:48:07;;;;;;;14.77;9.65;;;-0.20;99.90;;;;;;5041817;28;20205;-69
2024/01/28 08:50:53;;;;;;;13.18;9.60;;;-0.10;99.90;;;;;;5039260;28;20205;-73
2024/01/28 08:53:39;;;;;;;13.10;9.15;;;-0.10;99.90;;;;;;5043580;28;20217;-72
2024/01/28 08:56:25;;;;;;;16.00;10.95;;;0.00;99.90;;;;;;5037020;28;20202;-69
2024/01/28 08:59:11;;;;;;;24.95;15.45;;;0.10;99.90;;;;;;5037624;28;20205;-70
2024/01/28 09:01:59;;;;;;;19.83;14.38;;;0.10;99.90;;;;;;5040271;28;20537;-68
2024/01/28 09:04:45;;;;;;;19.92;12.65;;;0.10;99.90;;;;;;5036190;28;20590;-69
2024/01/28 09:07:31;;;;;;;19.13;12.00;;;0.20;99.90;;;;;;5036503;28;20590;-68
2024/01/28 09:10:18;;;;;;;16.15;10.98;;;0.20;99.90;;;;;;5037582;28;20201;-69
2024/01/28 09:13:04;;;;;;;18.27;12.40;;;0.30;99.90;;;;;;5036771;28;20217;-73
2024/01/28 09:15:50;;;;;;;18.65;12.13;;;0.50;99.90;;;;;;5038618;28;20197;-71
2024/01/28 09:18:42;;;;;;;21.35;14.07;;;0.60;99.90;;;;;;5035628;28;20563;-71
2024/01/28 09:21:27;;;;;;;22.38;14.50;;;0.70;99.90;;;;;;5034539;28;20198;-68
2024/01/28 09:24:13;;;;;;;19.90;13.32;;;0.90;99.90;;;;;;5032222;28;20289;-68
2024/01/28 09:27:00;;;;;;;17.58;12.35;;;1.10;99.90;;;;;;5035963;28;20228;-69
2024/01/28 09:29:45;;;;;;;18.05;11.70;;;1.20;99.90;;;;;;5033152;28;20217;-69
2024/01/28 09:32:31;;;;;;;15.07;11.45;;;1.40;99.90;;;;;;5036947;28;20291;-69
2024/01/28 09:35:18;;;;;;;18.23;11.68;;;1.60;99.90;;;;;;5039843;28;20276;-70
2024/01/28 09:38:04;;;;;;;16.70;10.23;;;1.70;99.90;;;;;;5037595;28;20245;-69
2024/01/28 09:40:52;;;;;;;12.90;9.25;;;1.80;99.90;;;;;;5034459;28;20632;-69
2024/01/28 09:43:39;;;;;;;13.05;9.75;;;1.90;99.90;;;;;;5037467;28;20362;-69
2024/01/28 09:46:25;;;;;;;14.10;10.15;;;2.10;99.90;;;;;;5037699;28;20690;-70
2024/01/28 09:49:12;;;;;;;17.13;8.80;;;2.30;99.90;;;;;;5037215;28;20528;-69
2024/01/28 09:51:58;;;;;;;23.73;13.18;;;2.60;99.90;;;;;;5034409;28;20205;-69
2024/01/28 09:54:45;;;;;;;24.13;13.10;;;2.70;99.90;;;;;;5040976;28;20217;-68
2024/01/28 09:57:31;;;;;;;15.95;10.80;;;2.90;99.90;;;;;;5038026;28;20691;-69
2024/01/28 10:00:17;;;;;;;27.48;12.73;;;3.20;99.90;;;;;;5032879;28;20204;-69
2024/01/28 10:03:03;;;;;;;21.83;11.63;;;3.30;99.90;;;;;;5039022;28;20205;-70
2024/01/28 10:05:49;;;;;;;18.45;10.35;;;3.60;99.90;;;;;;5036778;28;20224;-70
2024/01/28 10:08:36;;;;;;;18.45;9.60;;;3.80;99.90;;;;;;5034086;28;20499;-69
2024/01/28 10:11:22;;;;;;;14.90;9.55;;;4.10;99.90;;;;;;5035236;28;20209;-70
2024/01/28 10:14:07;;;;;;;16.00;8.80;;;4.30;99.90;;;;;;5032689;28;20230;-73
2024/01/28 10:16:54;;;;;;;15.07;8.88;;;4.50;99.90;;;;;;5035852;28;20733;-70
2024/01/28 10:19:41;;;;;;;18.80;8.77;;;4.70;99.90;;;;;;5037406;28;20740;-72
2024/01/28 10:22:26;;;;;;;13.85;8.15;;;5.00;99.90;;;;;;5038373;28;20565;-68
2024/01/28 10:25:16;;;;;;;13.23;8.00;;;5.20;99.90;;;;;;5038412;28;20224;-69
2024/01/28 10:28:02;;;;;;;16.17;9.43;;;5.40;99.90;;;;;;5037280;28;20760;-70
2024/01/28 10:30:49;;;;;;;10.88;8.10;;;5.60;99.90;;;;;;5037341;28;20448;-70
2024/01/28 10:33:35;;;;;;;10.80;7.57;;;5.90;99.90;;;;;;5035793;28;20221;-70
2024/01/28 10:36:20;;;;;;;11.98;7.03;;;6.10;99.90;;;;;;5033634;28;20678;-69
2024/01/28 10:39:08;;;;;;;10.95;7.07;;;6.30;99.90;;;;;;5040361;28;20272;-71
2024/01/28 10:41:56;;;;;;;15.52;6.63;;;6.50;99.90;;;;;;5038774;28;20219;-71
2024/01/28 10:44:46;;;;;;;9.00;5.63;;;6.70;99.90;;;;;;5039171;28;20332;-70
2024/01/28 10:47:35;;;;;;;11.63;6.78;;;6.90;99.90;;;;;;5035990;28;20322;-70
2024/01/28 10:50:22;;;;;;;8.50;5.50;;;7.50;99.90;;;;;;5034194;28;20733;-69
2024/01/28 10:53:10;;;;;;;7.00;5.07;;;7.80;99.90;;;;;;5037100;28;20590;-70
2024/01/28 10:55:56;;;;;;;7.90;5.37;;;7.90;99.90;;;;;;5035555;28;20439;-72
2024/01/28 10:58:44;;;;;;;8.82;4.90;;;8.00;99.90;;;;;;5036636;28;20822;-70
2024/01/28 11:01:31;;;;;;;9.90;5.37;;;8.40;99.90;;;;;;5037715;28;20204;-69
2024/01/28 11:04:16;;;;;;;7.60;5.00;;;8.90;99.90;;;;;;5034224;28;20468;-70
2024/01/28 11:07:03;;;;;;;13.03;5.60;;;9.20;97.80;;;;;;5035394;28;20829;-68
2024/01/28 11:09:49;;;;;;;11.93;5.80;;;9.50;93.60;;;;;;5039257;28;20445;-69
2024/01/28 11:12:35;;;;;;;9.43;5.10;;;9.60;92.80;;;;;;5037554;28;20445;-69
2024/01/28 11:15:22;;;;;;;7.30;4.53;;;9.80;93.40;;;;;;5041650;28;20595;-69
2024/01/28 11:18:09;;;;;;;15.17;5.77;;;9.70;88.10;;;;;;5043019;28;20454;-69
2024/01/28 11:20:55;;;;;;;9.87;4.67;;;9.70;88.50;;;;;;5030405;28;20443;-69
2024/01/28 11:23:45;;;;;;;8.40;5.07;;;9.80;86.70;;;;;;5037118;28;20470;-69
2024/01/28 11:26:36;;;;;;;7.50;4.40;;;9.70;85.40;;;;;;5037515;28;20512;-69
2024/01/28 11:29:21;;;;;;;8.60;5.00;;;9.60;92.40;;;;;;5028607;28;20434;-73
2024/01/28 11:32:09;;;;;;;7.03;4.13;;;9.50;89.10;;;;;;5032245;28;20946;-69
2024/01/28 11:34:54;;;;;;;7.77;4.80;;;9.30;85.00;;;;;;5031019;28;20455;-69
2024/01/28 11:37:48;;;;;;;6.10;3.70;;;9.20;85.00;;;;;;5029948;28;20467;-71
2024/01/28 11:40:37;;;;;;;6.40;4.50;;;9.20;88.50;;;;;;5031813;28;20421;-69
2024/01/28 11:43:23;;;;;;;5.87;3.80;;;9.30;90.40;;;;;;5038809;28;20960;-69
2024/01/28 11:46:08;;;;;;;6.30;3.33;;;9.30;91.60;;;;;;5033085;28;20560;-69
2024/01/28 11:48:55;;;;;;;7.63;4.03;;;9.40;89.50;;;;;;5031686;28;20446;-70
2024/01/28 11:51:41;;;;;;;5.83;3.50;;;9.50;90.80;;;;;;5031604;28;20539;-70
2024/01/28 11:54:27;;;;;;;6.90;3.70;;;9.50;90.00;;;;;;5031285;28;20502;-69
2024/01/28 11:57:12;;;;;;;5.37;3.37;;;9.50;85.60;;;;;;5030176;28;20955;-70
2024/01/28 11:59:58;;;;;;;3.40;2.50;;;9.40;75.30;;;;;;5031366;28;20517;-70
2024/01/28 12:02:44;;;;;;;7.73;4.53;;;9.30;85.00;;;;;;5029448;28;20431;-69
2024/01/28 12:05:32;;;;;;;6.47;3.40;;;9.20;87.90;;;;;;5038721;28;20555;-69
2024/01/28 12:08:26;;;;;;;4.50;2.97;;;9.10;86.10;;;;;;5035042;28;20434;-69
2024/01/28 12:11:14;;;;;;;6.00;3.50;;;9.10;87.60;;;;;;5033321;28;20448;-68
2024/01/28 12:14:00;;;;;;;4.97;3.00;;;9.10;88.00;;;;;;5039362;28;20450;-70
2024/01/28 12:16:45;;;;;;;6.80;3.60;;;9.10;92.00;;;;;;5041129;28;20426;-69
2024/01/28 12:19:31;;;;;;;7.13;3.10;;;9.10;93.30;;;;;;5040190;28;20510;-69
2024/01/28 12:22:18;;;;;;;6.70;3.73;;;9.10;87.50;;;;;;5042380;28;20573;-73
2024/01/28 12:25:08;;;;;;;5.67;3.63;;;9.10;90.60;;;;;;5040742;28;20605;-69
2024/01/28 12:27:54;;;;;;;12.03;5.47;;;9.10;94.30;;;;;;5045253;28;20466;-69
2024/01/28 12:30:40;;;;;;;10.20;6.20;;;9.20;96.10;;;;;;5032900;28;20439;-68
2024/01/28 12:33:28;;;;;;;13.13;7.87;;;9.30;99.90;;;;;;5032700;28;20435;-68
2024/01/28 12:36:14;;;;;;;14.77;10.07;;;9.60;99.90;;;;;;5040166;28;20427;-68
2024/01/28 12:39:01;;;;;;;17.30;10.30;;;9.80;99.90;;;;;;5032984;28;20435;-70
2024/01/28 12:41:46;;;;;;;13.60;11.13;;;10.30;99.90;;;;;;5037774;28;21061;-69
2024/01/28 12:44:32;;;;;;;20.67;10.80;;;10.80;99.90;;;;;;5033405;28;20426;-69
2024/01/28 12:47:17;;;;;;;14.00;9.70;;;11.30;95.80;;;;;;5032582;28;20529;-71
2024/01/28 12:50:05;;;;;;;16.23;9.90;;;11.80;96.10;;;;;;5032685;28;20458;-68
2024/01/28 12:52:50;;;;;;;14.33;10.07;;;12.20;91.60;;;;;;5033480;28;20396;-69
2024/01/28 12:55:37;;;;;;;14.93;8.33;;;12.50;86.10;;;;;;5035598;28;20409;-69
2024/01/28 12:58:23;;;;;;;11.67;8.47;;;12.80;84.40;;;;;;5036628;28;20563;-69
2024/01/28 13:01:09;;;;;;;11.57;7.80;;;13.00;80.20;;;;;;5035467;28;20956;-68
2024/01/28 13:03:54;;;;;;;12.57;8.00;;;13.50;72.10;;;;;;5032554;28;20453;-68
2024/01/28 13:06:40;;;;;;;17.27;6.90;;;13.80;61.20;;;;;;5032331;28;20472;-69
2024/01/28 13:09:27;;;;;;;13.10;7.47;;;14.20;48.20;;;;;;5039262;28;20578;-70
2024/01/28 13:12:15;;;;;;;12.67;6.40;;;14.10;38.90;;;;;;5033147;28;20448;-69
2024/01/28 13:15:00;;;;;;;13.27;7.90;;;14.50;39.10;;;;;;5032494;28;20445;-70
2024/01/28 13:17:46;;;;;;;11.23;6.70;;;14.70;35.90;;;;;;5032783;28;21012;-72
2024/01/28 13:20:32;;;;;;;9.77;6.70;;;14.80;34.90;;;;;;5033155;28;20440;-69
2024/01/28 13:23:17;;;;;;;10.50;5.93;;;15.10;32.10;;;;;;5031563;28;20548;-71
2024/01/28 13:26:03;;;;;;;12.43;6.47;;;15.30;30.30;;;;;;5046689;28;20406;-69
2024/01/28 13:28:50;;;;;;;9.37;5.47;;;15.20;26.40;;;;;;5039267;28;20428;-70
2024/01/28 13:31:35;;;;;;;10.50;6.37;;;15.40;25.70;;;;;;5038239;28;20403;-69
2024/01/28 13:34:21;;;;;;;7.90;5.60;;;15.40;24.90;;;;;;5032754;28;20464;-70
2024/01/28 13:37:07;;;;;;;8.93;5.83;;;15.50;24.70;;;;;;5032015;28;20515;-70
2024/01/28 13:39:53;;;;;;;9.43;6.10;;;15.60;25.50;;;;;;5031913;28;20414;-70
2024/01/28 13:42:39;;;;;;;10.50;6.07;;;15.70;24.20;;;;;;5031832;28;20420;-70
2024/01/28 13:45:26;;;;;;;6.63;5.43;;;16.00;24.20;;;;;;5031865;28;20471;-70
2024/01/28 13:48:11;;;;;;;10.40;5.33;;;16.10;24.10;;;;;;5032268;28;20501;-70
2024/01/28 13:50:57;;;;;;;7.87;4.57;;;16.30;23.40;;;;;;5033557;28;20944;-70
2024/01/28 13:53:43;;;;;;;8.97;5.47;;;16.10;23.40;;;;;;5039178;28;20476;-70
2024/01/28 13:56:29;;;;;;;9.53;4.60;;;15.10;25.00;;;;;;5038576;28;20410;-70
2024/01/28 13:59:16;;;;;;;8.57;5.00;;;13.90;28.60;;;;;;5031678;28;20450;-70
2024/01/28 14:02:04;;;;;;;8.47;4.87;;;13.00;36.60;;;;;;5039273;28;20425;-70
2024/01/28 14:04:50;;;;;;;10.70;6.60;;;12.30;43.80;;;;;;5031236;28;20998;-70
2024/01/28 14:07:36;;;;;;;6.23;4.27;;;12.10;42.30;;;;;;5032459;28;20551;-70
2024/01/28 14:10:21;;;;;;;8.50;5.07;;;11.80;46.00;;;;;;5030968;28;20424;-70
2024/01/28 14:13:07;;;;;;;8.43;5.10;;;11.40;48.70;;;;;;5032303;28;20435;-70
2024/01/28 14:15:53;;;;;;;12.40;6.37;;;11.20;50.60;;;;;;5037802;28;20487;-70
2024/01/28 14:18:40;;;;;;;17.13;7.07;;;10.70;53.70;;;;;;5031322;28;20420;-70
2024/01/28 14:21:28;;;;;;;15.03;7.63;;;10.50;57.70;;;;;;5042465;28;20425;-70
2024/01/28 14:24:14;;;;;;;15.67;8.40;;;10.20;63.00;;;;;;5036574;28;20815;-70